sensor_id;sensor_type;location;lat;lon;timestamp;pressure;altitude;pressure_sealevel;temperature;humidity
41254;BME280;26987;59.928;30.306;2023-12-07T00:00:10;103267.66;;;-12.24;100.00
41254;BME280;26987;59.928;30.306;2023-12-07T00:02:38;103267.63;;;-12.34;100.00
41254;BME280;26987;59.928;30.306;2023-12-07T00:05:09;103239.97;;;-12.54;100.00
41254;BME280;26987;59.928;30.306;2023-12-07T00:07:38;103272.78;;;-12.34;100.00
41254;BME280;26987;59.928;30.306;2023-12-07T00:10:07;103277.06;;;-12.37;100.00
41254;BME280;26987;59.928;30.306;2023-12-07T00:12:35;103269.28;;;-12.45;100.00
41254;BME280;26987;59.928;30.306;2023-12-07T00:15:04;103266.69;;;-12.55;100.00
41254;BME280;26987;59.928;30.306;2023-12-07T00:17:35;103260.59;;;-12.63;100.00
41254;BME280;26987;59.928;30.306;2023-12-07T00:20:05;103267.50;;;-12.63;100.00
41254;BME280;26987;59.928;30.306;2023-12-07T00:22:33;103252.81;;;-12.77;100.00
41254;BME280;26987;59.928;30.306;2023-12-07T00:25:04;103267.47;;;-12.73;100.00
41254;BME280;26987;59.928;30.306;2023-12-07T00:27:36;103236.38;;;-12.85;100.00
41254;BME280;26987;59.928;30.306;2023-12-07T00:30:04;103265.75;;;-12.66;100.00
41254;BME280;26987;59.928;30.306;2023-12-07T00:32:32;103268.31;;;-12.71;100.00
41254;BME280;26987;59.928;30.306;2023-12-07T00:35:00;103257.97;;;-12.77;100.00
41254;BME280;26987;59.928;30.306;2023-12-07T00:37:28;103281.25;;;-12.66;100.00
41254;BME280;26987;59.928;30.306;2023-12-07T00:39:57;103283.00;;;-12.68;100.00
41254;BME280;26987;59.928;30.306;2023-12-07T00:42:26;103288.19;;;-12.57;100.00
41254;BME280;26987;59.928;30.306;2023-12-07T00:44:54;103283.94;;;-12.50;100.00
41254;BME280;26987;59.928;30.306;2023-12-07T00:47:22;103283.06;;;-12.49;100.00
41254;BME280;26987;59.928;30.306;2023-12-07T00:49:50;103283.97;;;-12.44;100.00
41254;BME280;26987;59.928;30.306;2023-12-07T00:52:21;103279.66;;;-12.39;100.00
41254;BME280;26987;59.928;30.306;2023-12-07T00:54:51;103282.25;;;-12.37;100.00
41254;BME280;26987;59.928;30.306;2023-12-07T00:57:19;103296.09;;;-12.27;100.00
41254;BME280;26987;59.928;30.306;2023-12-07T00:59:49;103290.94;;;-12.23;100.00
41254;BME280;26987;59.928;30.306;2023-12-07T01:02:17;103295.25;;;-12.23;100.00
41254;BME280;26987;59.928;30.306;2023-12-07T01:04:45;103288.34;;;-12.24;100.00
41254;BME280;26987;59.928;30.306;2023-12-07T01:07:13;103271.06;;;-12.32;100.00
41254;BME280;26987;59.928;30.306;2023-12-07T01:09:41;103267.63;;;-12.34;100.00
41254;BME280;26987;59.928;30.306;2023-12-07T01:12:09;103275.38;;;-12.35;100.00
41254;BME280;26987;59.928;30.306;2023-12-07T01:14:37;103192.38;;;-12.96;100.00
41254;BME280;26987;59.928;30.306;2023-12-07T01:17:06;103281.38;;;-12.47;100.00
41254;BME280;26987;59.928;30.306;2023-12-07T01:19:34;103286.53;;;-12.47;100.00
41254;BME280;26987;59.928;30.306;2023-12-07T01:22:02;103283.91;;;-12.54;100.00
41254;BME280;26987;59.928;30.306;2023-12-07T01:24:30;103195.75;;;-13.11;100.00
41254;BME280;26987;59.928;30.306;2023-12-07T01:26:58;103270.91;;;-12.69;100.00
41254;BME280;26987;59.928;30.306;2023-12-07T01:29:26;103287.31;;;-12.67;100.00
41254;BME280;26987;59.928;30.306;2023-12-07T01:31:54;103289.81;;;-12.81;100.00
41254;BME280;26987;59.928;30.306;2023-12-07T01:34:24;103291.50;;;-12.88;100.00
41254;BME280;26987;59.928;30.306;2023-12-07T01:36:52;103290.59;;;-12.95;100.00
41254;BME280;26987;59.928;30.306;2023-12-07T01:39:20;103293.94;;;-13.10;100.00
41254;BME280;26987;59.928;30.306;2023-12-07T01:41:49;103300.84;;;-13.12;100.00
41254;BME280;26987;59.928;30.306;2023-12-07T01:44:17;103304.22;;;-13.22;100.00
41254;BME280;26987;59.928;30.306;2023-12-07T01:46:46;103262.69;;;-13.52;100.00
41254;BME280;26987;59.928;30.306;2023-12-07T01:49:14;103301.53;;;-13.35;100.00
41254;BME280;26987;59.928;30.306;2023-12-07T01:51:43;103303.16;;;-13.45;100.00
41254;BME280;26987;59.928;30.306;2023-12-07T01:54:11;103317.78;;;-13.47;100.00
41254;BME280;26987;59.928;30.306;2023-12-07T01:56:40;103327.25;;;-13.44;100.00
41254;BME280;26987;59.928;30.306;2023-12-07T01:59:08;103333.34;;;-13.39;100.00
41254;BME280;26987;59.928;30.306;2023-12-07T02:01:37;103329.91;;;-13.36;100.00
41254;BME280;26987;59.928;30.306;2023-12-07T02:04:05;103321.38;;;-13.29;100.00
41254;BME280;26987;59.928;30.306;2023-12-07T02:06:33;103315.34;;;-13.28;100.00
41254;BME280;26987;59.928;30.306;2023-12-07T02:09:02;103281.63;;;-13.53;100.00
41254;BME280;26987;59.928;30.306;2023-12-07T02:11:32;103329.09;;;-13.31;100.00
41254;BME280;26987;59.928;30.306;2023-12-07T02:14:00;103311.81;;;-13.41;100.00
41254;BME280;26987;59.928;30.306;2023-12-07T02:16:32;103326.41;;;-13.43;100.00
41254;BME280;26987;59.928;30.306;2023-12-07T02:19:16;103277.13;;;-13.73;100.00
41254;BME280;26987;59.928;30.306;2023-12-07T02:21:55;103309.06;;;-13.60;100.00
41254;BME280;26987;59.928;30.306;2023-12-07T02:24:27;103330.69;;;-13.48;100.00
41254;BME280;26987;59.928;30.306;2023-12-07T02:26:57;103301.34;;;-13.63;100.00
41254;BME280;26987;59.928;30.306;2023-12-07T02:29:24;103322.00;;;-13.58;100.00
41254;BME280;26987;59.928;30.306;2023-12-07T02:31:52;103323.63;;;-13.68;100.00
41254;BME280;26987;59.928;30.306;2023-12-07T02:34:20;103304.47;;;-13.94;100.00
41254;BME280;26987;59.928;30.306;2023-12-07T02:36:49;103323.41;;;-13.93;100.00
41254;BME280;26987;59.928;30.306;2023-12-07T02:39:23;103331.00;;;-14.06;100.00
41254;BME280;26987;59.928;30.306;2023-12-07T02:41:51;103341.31;;;-14.06;100.00
41254;BME280;26987;59.928;30.306;2023-12-07T02:44:21;103343.03;;;-14.06;100.00
41254;BME280;26987;59.928;30.306;2023-12-07T02:46:49;103342.91;;;-14.17;100.00
41254;BME280;26987;59.928;30.306;2023-12-07T02:49:17;103341.13;;;-14.21;100.00
41254;BME280;26987;59.928;30.306;2023-12-07T02:51:45;103338.47;;;-14.27;100.00
41254;BME280;26987;59.928;30.306;2023-12-07T02:54:13;103325.53;;;-14.31;100.00
41254;BME280;26987;59.928;30.306;2023-12-07T02:56:41;103328.22;;;-14.21;100.00
41254;BME280;26987;59.928;30.306;2023-12-07T02:59:09;103340.31;;;-14.19;100.00
41254;BME280;26987;59.928;30.306;2023-12-07T03:01:38;103338.53;;;-14.23;100.00
41254;BME280;26987;59.928;30.306;2023-12-07T03:04:06;103325.56;;;-14.29;100.00
41254;BME280;26987;59.928;30.306;2023-12-07T03:06:34;103344.59;;;-14.21;100.00
41254;BME280;26987;59.928;30.306;2023-12-07T03:09:02;103352.34;;;-14.19;100.00
41254;BME280;26987;59.928;30.306;2023-12-07T03:11:30;103341.06;;;-14.26;100.00
41254;BME280;26987;59.928;30.306;2023-12-07T03:13:58;103337.63;;;-14.28;100.00
41254;BME280;26987;59.928;30.306;2023-12-07T03:16:26;103342.81;;;-14.26;100.00
41254;BME280;26987;59.928;30.306;2023-12-07T03:18:55;103364.34;;;-14.21;100.00
41254;BME280;26987;59.928;30.306;2023-12-07T03:21:23;103362.59;;;-14.24;100.00
41254;BME280;26987;59.928;30.306;2023-12-07T03:23:51;103371.25;;;-14.20;100.00
41254;BME280;26987;59.928;30.306;2023-12-07T03:26:19;103355.66;;;-14.29;100.00
41254;BME280;26987;59.928;30.306;2023-12-07T03:28:47;103376.41;;;-14.20;100.00
41254;BME280;26987;59.928;30.306;2023-12-07T03:31:15;103357.31;;;-14.33;100.00
41254;BME280;26987;59.928;30.306;2023-12-07T03:33:43;103338.25;;;-14.46;100.00
41254;BME280;26987;59.928;30.306;2023-12-07T03:36:12;103383.34;;;-14.16;100.00
41254;BME280;26987;59.928;30.306;2023-12-07T03:38:40;103365.06;;;-14.33;100.00
41254;BME280;26987;59.928;30.306;2023-12-07T03:41:08;103386.69;;;-14.23;100.00
41254;BME280;26987;59.928;30.306;2023-12-07T03:43:36;103395.38;;;-14.13;100.00
41254;BME280;26987;59.928;30.306;2023-12-07T03:46:04;103386.78;;;-14.14;100.00
41254;BME280;26987;59.928;30.306;2023-12-07T03:48:32;103378.19;;;-14.14;100.00
41254;BME280;26987;59.928;30.306;2023-12-07T03:51:00;103385.16;;;-14.06;100.00
41254;BME280;26987;59.928;30.306;2023-12-07T03:53:30;103381.69;;;-14.08;100.00
41254;BME280;26987;59.928;30.306;2023-12-07T03:55:58;103372.81;;;-14.30;100.00
41254;BME280;26987;59.928;30.306;2023-12-07T03:58:26;103351.13;;;-14.48;100.00
41254;BME280;26987;59.928;30.306;2023-12-07T04:00:54;103388.16;;;-14.39;100.00
41254;BME280;26987;59.928;30.306;2023-12-07T04:03:21;103394.16;;;-14.42;100.00
41254;BME280;26987;59.928;30.306;2023-12-07T04:05:49;103390.69;;;-14.46;100.00
41254;BME280;26987;59.928;30.306;2023-12-07T04:08:18;103394.03;;;-14.50;100.00
41254;BME280;26987;59.928;30.306;2023-12-07T04:10:47;103397.34;;;-14.60;100.00
41254;BME280;26987;59.928;30.306;2023-12-07T04:13:15;103400.59;;;-14.72;100.00
41254;BME280;26987;59.928;30.306;2023-12-07T04:15:44;103385.88;;;-14.83;100.00
41254;BME280;26987;59.928;30.306;2023-12-07T04:18:13;103403.97;;;-14.79;100.00
41254;BME280;26987;59.928;30.306;2023-12-07T04:20:40;103405.72;;;-14.74;100.00
41254;BME280;26987;59.928;30.306;2023-12-07T04:23:08;103406.66;;;-14.70;100.00
41254;BME280;26987;59.928;30.306;2023-12-07T04:25:54;103386.00;;;-14.73;100.00
41254;BME280;26987;59.928;30.306;2023-12-07T04:28:22;103388.56;;;-14.73;100.00
41254;BME280;26987;59.928;30.306;2023-12-07T04:30:50;103412.78;;;-14.62;100.00
41254;BME280;26987;59.928;30.306;2023-12-07T04:33:19;103378.13;;;-14.84;100.00
41254;BME280;26987;59.928;30.306;2023-12-07T04:35:48;103353.09;;;-14.93;100.00
41254;BME280;26987;59.928;30.306;2023-12-07T04:38:17;103405.81;;;-14.67;100.00
41254;BME280;26987;59.928;30.306;2023-12-07T04:40:45;103410.03;;;-14.74;100.00
41254;BME280;26987;59.928;30.306;2023-12-07T04:43:14;103408.25;;;-14.78;100.00
41254;BME280;26987;59.928;30.306;2023-12-07T04:45:42;103409.97;;;-14.80;100.00
41254;BME280;26987;59.928;30.306;2023-12-07T04:48:11;103402.19;;;-14.84;100.00
41254;BME280;26987;59.928;30.306;2023-12-07T04:50:39;103394.28;;;-14.95;100.00
41254;BME280;26987;59.928;30.306;2023-12-07T04:53:07;103421.88;;;-14.87;100.00
41254;BME280;26987;59.928;30.306;2023-12-07T04:55:36;103425.31;;;-14.87;100.00
41254;BME280;26987;59.928;30.306;2023-12-07T04:58:04;103422.81;;;-14.84;100.00
41254;BME280;26987;59.928;30.306;2023-12-07T05:00:33;103407.25;;;-14.88;100.00
41254;BME280;26987;59.928;30.306;2023-12-07T05:03:01;103401.09;;;-14.97;100.00
41254;BME280;26987;59.928;30.306;2023-12-07T05:05:32;103424.16;;;-15.06;100.00
41254;BME280;26987;59.928;30.306;2023-12-07T05:08:00;103419.63;;;-15.21;100.00
41254;BME280;26987;59.928;30.306;2023-12-07T05:10:28;103416.09;;;-15.25;100.00
41254;BME280;26987;59.928;30.306;2023-12-07T05:12:56;103427.44;;;-15.13;100.00
41254;BME280;26987;59.928;30.306;2023-12-07T05:15:24;103432.63;;;-15.12;100.00
41254;BME280;26987;59.928;30.306;2023-12-07T05:17:53;103436.91;;;-15.14;100.00
41254;BME280;26987;59.928;30.306;2023-12-07T05:20:21;103410.06;;;-15.27;100.00
41254;BME280;26987;59.928;30.306;2023-12-07T05:22:50;103436.09;;;-15.10;100.00
41254;BME280;26987;59.928;30.306;2023-12-07T05:25:18;103430.06;;;-15.12;100.00
41254;BME280;26987;59.928;30.306;2023-12-07T05:27:46;103413.50;;;-15.26;100.00
41254;BME280;26987;59.928;30.306;2023-12-07T05:30:14;103435.00;;;-15.24;100.00
41254;BME280;26987;59.928;30.306;2023-12-07T05:32:42;103408.00;;;-15.47;100.00
41254;BME280;26987;59.928;30.306;2023-12-07T05:35:11;103445.31;;;-15.24;100.00
41254;BME280;26987;59.928;30.306;2023-12-07T05:37:39;103450.41;;;-15.27;100.00
41254;BME280;26987;59.928;30.306;2023-12-07T05:40:08;103454.59;;;-15.31;100.00
41254;BME280;26987;59.928;30.306;2023-12-07T05:42:38;103453.66;;;-15.38;100.00
41254;BME280;26987;59.928;30.306;2023-12-07T05:45:07;103454.31;;;-15.48;100.00
41254;BME280;26987;59.928;30.306;2023-12-07T05:47:36;103462.03;;;-15.48;100.00
41254;BME280;26987;59.928;30.306;2023-12-07T05:50:05;103460.13;;;-15.59;100.00
41254;BME280;26987;59.928;30.306;2023-12-07T05:52:34;103455.69;;;-15.64;100.00
41254;BME280;26987;59.928;30.306;2023-12-07T05:55:03;103453.09;;;-15.66;100.00
41254;BME280;26987;59.928;30.306;2023-12-07T05:57:31;103424.44;;;-15.85;100.00
41254;BME280;26987;59.928;30.306;2023-12-07T05:59:59;103420.09;;;-15.89;100.00
41254;BME280;26987;59.928;30.306;2023-12-07T06:02:27;103445.28;;;-15.72;100.00
41254;BME280;26987;59.928;30.306;2023-12-07T06:04:56;103462.59;;;-15.63;100.00
41254;BME280;26987;59.928;30.306;2023-12-07T06:07:24;103468.63;;;-15.61;100.00
41254;BME280;26987;59.928;30.306;2023-12-07T06:09:53;103417.38;;;-15.97;100.00
41254;BME280;26987;59.928;30.306;2023-12-07T06:12:22;103459.03;;;-15.70;100.00
41254;BME280;26987;59.928;30.306;2023-12-07T06:14:50;103477.09;;;-15.67;100.00
41254;BME280;26987;59.928;30.306;2023-12-07T06:17:20;103479.69;;;-15.65;100.00
41254;BME280;26987;59.928;30.306;2023-12-07T06:19:48;103438.19;;;-15.82;100.00
41254;BME280;26987;59.928;30.306;2023-12-07T06:22:15;103478.28;;;-15.49;100.00
41254;BME280;26987;59.928;30.306;2023-12-07T06:24:43;103455.69;;;-15.64;100.00
41254;BME280;26987;59.928;30.306;2023-12-07T06:27:13;103491.03;;;-15.55;100.00
41254;BME280;26987;59.928;30.306;2023-12-07T06:29:41;103489.31;;;-15.56;100.00
41254;BME280;26987;59.928;30.306;2023-12-07T06:32:09;103475.09;;;-15.80;100.00
41254;BME280;26987;59.928;30.306;2023-12-07T06:34:39;103479.69;;;-15.65;100.00
41254;BME280;26987;59.928;30.306;2023-12-07T06:37:07;103497.00;;;-15.58;100.00
41254;BME280;26987;59.928;30.306;2023-12-07T06:39:36;103472.06;;;-15.61;100.00
41254;BME280;26987;59.928;30.306;2023-12-07T06:42:05;103478.81;;;-15.66;100.00
41254;BME280;26987;59.928;30.306;2023-12-07T06:44:35;103489.50;;;-15.47;100.00
41254;BME280;26987;59.928;30.306;2023-12-07T06:47:03;103466.19;;;-15.55;100.00
41254;BME280;26987;59.928;30.306;2023-12-07T06:49:32;103487.88;;;-15.42;100.00
41254;BME280;26987;59.928;30.306;2023-12-07T06:52:00;103479.06;;;-15.53;100.00
41254;BME280;26987;59.928;30.306;2023-12-07T06:54:28;103486.94;;;-15.46;100.00
41254;BME280;26987;59.928;30.306;2023-12-07T06:56:56;103471.06;;;-15.67;100.00
41254;BME280;26987;59.928;30.306;2023-12-07T06:59:24;103489.59;;;-15.42;100.00
41254;BME280;26987;59.928;30.306;2023-12-07T07:01:53;103490.44;;;-15.43;100.00
41254;BME280;26987;59.928;30.306;2023-12-07T07:04:21;103498.00;;;-15.51;100.00
41254;BME280;26987;59.928;30.306;2023-12-07T07:06:49;103498.00;;;-15.51;100.00
41254;BME280;26987;59.928;30.306;2023-12-07T07:09:17;103475.59;;;-15.55;100.00
41254;BME280;26987;59.928;30.306;2023-12-07T07:11:47;103500.81;;;-15.37;100.00
41254;BME280;26987;59.928;30.306;2023-12-07T07:14:15;103487.84;;;-15.45;100.00
41254;BME280;26987;59.928;30.306;2023-12-07T07:16:44;103505.22;;;-15.33;100.00
41254;BME280;26987;59.928;30.306;2023-12-07T07:19:13;103507.06;;;-15.26;100.00
41254;BME280;26987;59.928;30.306;2023-12-07T07:21:43;103509.59;;;-15.29;100.00
41254;BME280;26987;59.928;30.306;2023-12-07T07:24:11;103500.94;;;-15.31;100.00
41254;BME280;26987;59.928;30.306;2023-12-07T07:26:39;103501.81;;;-15.30;100.00
41254;BME280;26987;59.928;30.306;2023-12-07T07:29:07;103507.84;;;-15.28;100.00
41254;BME280;26987;59.928;30.306;2023-12-07T07:31:35;103506.19;;;-15.26;100.00
41254;BME280;26987;59.928;30.306;2023-12-07T07:34:03;103508.81;;;-15.23;100.00
41254;BME280;26987;59.928;30.306;2023-12-07T07:36:33;103506.25;;;-15.23;100.00
41254;BME280;26987;59.928;30.306;2023-12-07T07:39:01;103502.75;;;-15.27;100.00
41254;BME280;26987;59.928;30.306;2023-12-07T07:41:31;103514.97;;;-15.16;100.00
41254;BME280;26987;59.928;30.306;2023-12-07T07:43:59;103514.28;;;-15.08;100.00
41254;BME280;26987;59.928;30.306;2023-12-07T07:46:26;103493.56;;;-15.14;100.00
41254;BME280;26987;59.928;30.306;2023-12-07T07:48:54;103508.38;;;-15.02;100.00
41254;BME280;26987;59.928;30.306;2023-12-07T07:51:22;103495.28;;;-15.13;100.00
41254;BME280;26987;59.928;30.306;2023-12-07T07:53:52;103515.28;;;-14.98;100.00
41254;BME280;26987;59.928;30.306;2023-12-07T07:56:20;103520.50;;;-14.95;100.00
41254;BME280;26987;59.928;30.306;2023-12-07T07:58:48;103525.56;;;-14.99;100.00
41254;BME280;26987;59.928;30.306;2023-12-07T08:01:18;103520.56;;;-14.91;100.00
41254;BME280;26987;59.928;30.306;2023-12-07T08:03:46;103522.50;;;-14.78;100.00
41254;BME280;26987;59.928;30.306;2023-12-07T08:06:16;103507.91;;;-14.77;100.00
41254;BME280;26987;59.928;30.306;2023-12-07T08:08:44;103515.63;;;-14.77;100.00
41254;BME280;26987;59.928;30.306;2023-12-07T08:11:21;103530.41;;;-14.67;100.00
41254;BME280;26987;59.928;30.306;2023-12-07T08:13:49;103487.19;;;-14.85;100.00
41254;BME280;26987;59.928;30.306;2023-12-07T08:16:17;103498.44;;;-14.77;100.00
41254;BME280;26987;59.928;30.306;2023-12-07T08:18:45;103526.28;;;-14.55;100.00
41254;BME280;26987;59.928;30.306;2023-12-07T08:21:19;103522.94;;;-14.50;100.00
41254;BME280;26987;59.928;30.306;2023-12-07T08:23:47;103528.88;;;-14.55;100.00
41254;BME280;26987;59.928;30.306;2023-12-07T08:26:17;103531.56;;;-14.49;100.00
41254;BME280;26987;59.928;30.306;2023-12-07T08:28:47;103524.72;;;-14.47;100.00
41254;BME280;26987;59.928;30.306;2023-12-07T08:31:16;103518.50;;;-14.59;100.00
41254;BME280;26987;59.928;30.306;2023-12-07T08:33:45;103519.41;;;-14.57;100.00
41254;BME280;26987;59.928;30.306;2023-12-07T08:36:12;103521.16;;;-14.54;100.00
41254;BME280;26987;59.928;30.306;2023-12-07T08:38:42;103534.28;;;-14.40;100.00
41254;BME280;26987;59.928;30.306;2023-12-07T08:41:10;103539.56;;;-14.31;100.00
41254;BME280;26987;59.928;30.306;2023-12-07T08:43:38;103551.72;;;-14.23;100.00
41254;BME280;26987;59.928;30.306;2023-12-07T08:46:07;103549.22;;;-14.19;100.00
41254;BME280;26987;59.928;30.306;2023-12-07T08:48:36;103556.06;;;-14.21;100.00
41254;BME280;26987;59.928;30.306;2023-12-07T08:51:04;103537.94;;;-14.25;100.00
41254;BME280;26987;59.928;30.306;2023-12-07T08:53:32;103563.78;;;-14.22;100.00
41254;BME280;26987;59.928;30.306;2023-12-07T08:56:00;103510.84;;;-14.54;100.00
41254;BME280;26987;59.928;30.306;2023-12-07T08:58:28;103536.06;;;-14.36;100.00
41254;BME280;26987;59.928;30.306;2023-12-07T09:00:56;103553.47;;;-14.22;100.00
41254;BME280;26987;59.928;30.306;2023-12-07T09:03:34;103563.88;;;-14.16;100.00
41254;BME280;26987;59.928;30.306;2023-12-07T09:06:04;103541.41;;;-14.23;100.00
41254;BME280;26987;59.928;30.306;2023-12-07T09:08:33;103522.41;;;-14.28;100.00
41254;BME280;26987;59.928;30.306;2023-12-07T09:11:01;103538.97;;;-14.12;100.00
41254;BME280;26987;59.928;30.306;2023-12-07T09:13:30;103558.81;;;-14.10;100.00
41254;BME280;26987;59.928;30.306;2023-12-07T09:15:58;103523.44;;;-14.19;100.00
41254;BME280;26987;59.928;30.306;2023-12-07T09:18:26;103534.66;;;-14.15;100.00
41254;BME280;26987;59.928;30.306;2023-12-07T09:20:56;103537.38;;;-14.06;100.00
41254;BME280;26987;59.928;30.306;2023-12-07T09:23:24;103536.63;;;-13.98;100.00
41254;BME280;26987;59.928;30.306;2023-12-07T09:25:52;103560.88;;;-13.85;100.00
41254;BME280;26987;59.928;30.306;2023-12-07T09:28:20;103541.69;;;-14.04;100.00
41254;BME280;26987;59.928;30.306;2023-12-07T09:30:48;103556.56;;;-13.86;100.00
41254;BME280;26987;59.928;30.306;2023-12-07T09:33:16;103554.91;;;-13.83;100.00
41254;BME280;26987;59.928;30.306;2023-12-07T09:35:44;103542.75;;;-13.90;100.00
41254;BME280;26987;59.928;30.306;2023-12-07T09:38:13;103530.66;;;-13.94;100.00
41254;BME280;26987;59.928;30.306;2023-12-07T09:40:43;103560.19;;;-13.75;100.00
41254;BME280;26987;59.928;30.306;2023-12-07T09:43:13;103567.06;;;-13.74;100.00
41254;BME280;26987;59.928;30.306;2023-12-07T09:45:41;103556.69;;;-13.77;100.00
41254;BME280;26987;59.928;30.306;2023-12-07T09:48:12;103557.47;;;-13.83;100.00
41254;BME280;26987;59.928;30.306;2023-12-07T09:50:40;103566.25;;;-13.70;100.00
41254;BME280;26987;59.928;30.306;2023-12-07T09:53:10;103546.38;;;-13.77;100.00
41254;BME280;26987;59.928;30.306;2023-12-07T09:55:39;103568.03;;;-13.64;100.00
41254;BME280;26987;59.928;30.306;2023-12-07T09:58:07;103508.28;;;-13.95;100.00
41254;BME280;26987;59.928;30.306;2023-12-07T10:00:36;103545.72;;;-13.62;100.00
41254;BME280;26987;59.928;30.306;2023-12-07T10:03:05;103420.00;;;-14.37;100.00
41254;BME280;26987;59.928;30.306;2023-12-07T10:05:53;103554.44;;;-13.50;100.00
41254;BME280;26987;59.928;30.306;2023-12-07T10:08:26;103510.19;;;-13.80;100.00
41254;BME280;26987;59.928;30.306;2023-12-07T10:11:06;103538.84;;;-13.60;100.00
41254;BME280;26987;59.928;30.306;2023-12-07T10:13:35;103561.34;;;-13.46;100.00
41254;BME280;26987;59.928;30.306;2023-12-07T10:16:08;103551.03;;;-13.48;100.00
41254;BME280;26987;59.928;30.306;2023-12-07T10:18:37;103563.22;;;-13.36;100.00
41254;BME280;26987;59.928;30.306;2023-12-07T10:21:07;103518.19;;;-13.60;100.00
41254;BME280;26987;59.928;30.306;2023-12-07T10:23:36;103547.53;;;-13.54;100.00
41254;BME280;26987;59.928;30.306;2023-12-07T10:26:09;103556.22;;;-13.49;100.00
41254;BME280;26987;59.928;30.306;2023-12-07T10:28:39;103531.88;;;-13.67;100.00
41254;BME280;26987;59.928;30.306;2023-12-07T10:31:08;103557.94;;;-13.45;100.00
41254;BME280;26987;59.928;30.306;2023-12-07T10:33:37;103541.47;;;-13.57;100.00
41254;BME280;26987;59.928;30.306;2023-12-07T10:36:06;103562.16;;;-13.53;100.00
41254;BME280;26987;59.928;30.306;2023-12-07T10:38:34;103560.50;;;-13.50;100.00
41254;BME280;26987;59.928;30.306;2023-12-07T10:41:09;103550.16;;;-13.48;100.00
41254;BME280;26987;59.928;30.306;2023-12-07T10:43:42;103563.19;;;-13.39;100.00
41254;BME280;26987;59.928;30.306;2023-12-07T10:46:13;103568.44;;;-13.30;100.00
41254;BME280;26987;59.928;30.306;2023-12-07T10:48:44;103547.56;;;-13.48;100.00
41254;BME280;26987;59.928;30.306;2023-12-07T10:51:17;103558.09;;;-13.31;100.00
41254;BME280;26987;59.928;30.306;2023-12-07T10:53:51;103571.06;;;-13.25;100.00
41254;BME280;26987;59.928;30.306;2023-12-07T10:56:29;103548.59;;;-13.34;100.00
41254;BME280;26987;59.928;30.306;2023-12-07T10:58:59;103570.31;;;-13.19;100.00
41254;BME280;26987;59.928;30.306;2023-12-07T11:01:28;103537.31;;;-13.42;100.00
41254;BME280;26987;59.928;30.306;2023-12-07T11:03:58;103573.59;;;-13.30;100.00
41254;BME280;26987;59.928;30.306;2023-12-07T11:06:27;103557.94;;;-13.45;100.00
41254;BME280;26987;59.928;30.306;2023-12-07T11:08:59;103563.94;;;-13.48;100.00
41254;BME280;26987;59.928;30.306;2023-12-07T11:11:32;103568.22;;;-13.51;100.00
41254;BME280;26987;59.928;30.306;2023-12-07T11:14:03;103578.56;;;-13.48;100.00
41254;BME280;26987;59.928;30.306;2023-12-07T11:16:34;103558.53;;;-13.68;100.00
41254;BME280;26987;59.928;30.306;2023-12-07T11:19:44;103573.38;;;-13.51;100.00
41254;BME280;26987;59.928;30.306;2023-12-07T11:22:13;103555.13;;;-13.65;100.00
41254;BME280;26987;59.928;30.306;2023-12-07T11:24:54;103555.31;;;-13.51;100.00
41254;BME280;26987;59.928;30.306;2023-12-07T11:27:29;103540.69;;;-13.51;100.00
41254;BME280;26987;59.928;30.306;2023-12-07T11:29:58;103568.38;;;-13.36;100.00
41254;BME280;26987;59.928;30.306;2023-12-07T11:32:27;103567.50;;;-13.38;100.00
41254;BME280;26987;59.928;30.306;2023-12-07T11:35:01;103567.50;;;-13.36;100.00
41254;BME280;26987;59.928;30.306;2023-12-07T11:38:01;103529.41;;;-13.58;100.00
41254;BME280;26987;59.928;30.306;2023-12-07T11:40:30;103548.47;;;-13.45;100.00
41254;BME280;26987;59.928;30.306;2023-12-07T11:43:00;103529.50;;;-13.48;100.00
41254;BME280;26987;59.928;30.306;2023-12-07T11:45:38;103559.75;;;-13.36;100.00
41254;BME280;26987;59.928;30.306;2023-12-07T11:48:11;103550.22;;;-13.42;100.00
41254;BME280;26987;59.928;30.306;2023-12-07T11:50:58;103563.19;;;-13.39;100.00
41254;BME280;26987;59.928;30.306;2023-12-07T11:53:27;103543.97;;;-13.64;100.00
41254;BME280;26987;59.928;30.306;2023-12-07T11:55:56;103548.19;;;-13.70;100.00
41254;BME280;26987;59.928;30.306;2023-12-07T11:58:29;103540.34;;;-13.77;100.00
41254;BME280;26987;59.928;30.306;2023-12-07T12:00:58;103559.38;;;-13.71;100.00
41254;BME280;26987;59.928;30.306;2023-12-07T12:03:27;103539.31;;;-13.90;100.00
41254;BME280;26987;59.928;30.306;2023-12-07T12:05:55;103540.09;;;-13.96;100.00
41254;BME280;26987;59.928;30.306;2023-12-07T12:08:24;103537.41;;;-14.04;100.00
41254;BME280;26987;59.928;30.306;2023-12-07T12:10:53;103569.38;;;-13.93;100.00
41254;BME280;26987;59.928;30.306;2023-12-07T12:13:27;103572.75;;;-13.97;100.00
41254;BME280;26987;59.928;30.306;2023-12-07T12:15:57;103564.09;;;-14.00;100.00
41254;BME280;26987;59.928;30.306;2023-12-07T12:18:26;103570.09;;;-14.03;100.00
41254;BME280;26987;59.928;30.306;2023-12-07T12:20:54;103556.25;;;-14.08;100.00
41254;BME280;26987;59.928;30.306;2023-12-07T12:23:24;103509.41;;;-14.36;100.00
41254;BME280;26987;59.928;30.306;2023-12-07T12:25:54;103554.38;;;-14.19;100.00
41254;BME280;26987;59.928;30.306;2023-12-07T12:28:22;103532.56;;;-14.39;100.00
41254;BME280;26987;59.928;30.306;2023-12-07T12:30:54;103547.31;;;-14.29;100.00